Time;durP1;ratioP1;P1;durP2;ratioP2;P2;SDS_P1;SDS_P2;PMS_P1;PMS_P2;Temp;Humidity;BMP_temperature;BMP_pressure;BME280_temperature;BME280_humidity;BME280_pressure;Samples;Min_cycle;Max_cycle;Signal;HPM_P1;HPM_P2
2022/05/16 00:01:51;;;;;;;6.60;3.83;;;;;;;;;;5001105;28;20046;-86
2022/05/16 00:04:16;;;;;;;7.57;3.20;;;;;;;;;;5000643;28;20268;-85
2022/05/16 00:06:42;;;;;;;7.50;3.60;;;;;;;;;;4982990;28;20061;-85
2022/05/16 00:09:07;;;;;;;6.32;3.25;;;;;;;;;;4999265;28;20038;-85
2022/05/16 00:11:33;;;;;;;5.80;3.30;;;;;;;;;;5000552;28;20034;-85
2022/05/16 00:13:58;;;;;;;6.07;3.50;;;;;;;;;;4999814;28;20030;-85
2022/05/16 00:16:24;;;;;;;6.43;3.33;;;;;;;;;;4983267;28;20034;-85
2022/05/16 00:18:51;;;;;;;7.95;3.58;;;;;;;;;;5000696;28;20112;-85
2022/05/16 00:21:19;;;;;;;7.60;3.33;;;;;;;;;;5000525;28;20038;-85
2022/05/16 00:23:45;;;;;;;4.35;3.17;;;;;;;;;;4983073;28;20046;-85
2022/05/16 00:26:11;;;;;;;7.35;3.42;;;;;;;;;;4999877;28;20094;-85
2022/05/16 00:28:37;;;;;;;5.95;3.70;;;;;;;;;;5000820;28;20065;-85
2022/05/16 00:31:03;;;;;;;4.57;3.33;;;;;;;;;;4998816;28;20038;-85
2022/05/16 00:33:29;;;;;;;4.78;3.30;;;;;;;;;;5000395;28;20070;-83
2022/05/16 00:35:54;;;;;;;8.40;3.30;;;;;;;;;;4999884;28;20054;-85
2022/05/16 00:38:20;;;;;;;6.10;3.40;;;;;;;;;;4999773;28;20035;-85
2022/05/16 00:40:45;;;;;;;5.03;3.03;;;;;;;;;;5000363;28;20030;-85
2022/05/16 00:43:13;;;;;;;4.88;3.20;;;;;;;;;;4999928;28;20031;-84
2022/05/16 00:45:39;;;;;;;6.95;3.35;;;;;;;;;;4999607;28;20069;-85
2022/05/16 00:48:05;;;;;;;5.40;3.45;;;;;;;;;;4997292;28;20057;-85
2022/05/16 00:50:33;;;;;;;6.22;3.17;;;;;;;;;;4999952;28;20038;-85
2022/05/16 00:52:59;;;;;;;8.23;3.75;;;;;;;;;;4999422;28;20030;-85
2022/05/16 00:55:29;;;;;;;5.80;3.45;;;;;;;;;;5000103;28;20081;-85
2022/05/16 00:57:57;;;;;;;4.93;3.60;;;;;;;;;;4999601;28;20077;-85
2022/05/16 01:00:36;;;;;;;5.28;3.75;;;;;;;;;;4999786;28;20030;-85
2022/05/16 01:05:54;;;;;;;7.90;3.60;;;;;;;;;;4999876;28;20046;-84
2022/05/16 01:08:25;;;;;;;4.70;3.20;;;;;;;;;;4999440;28;20066;-85
2022/05/16 01:10:59;;;;;;;6.55;3.10;;;;;;;;;;4999958;28;20556;-84
2022/05/16 01:13:27;;;;;;;7.05;3.50;;;;;;;;;;4982162;28;20041;-84
2022/05/16 01:15:53;;;;;;;6.70;3.40;;;;;;;;;;5000212;28;20037;-85
2022/05/16 01:18:23;;;;;;;5.57;3.20;;;;;;;;;;4999956;28;20514;-84
2022/05/16 01:21:07;;;;;;;7.85;3.60;;;;;;;;;;4981543;28;20637;-85
2022/05/16 01:24:06;;;;;;;4.65;3.10;;;;;;;;;;4999997;28;20026;-85
2022/05/16 01:26:32;;;;;;;5.05;3.80;;;;;;;;;;4972651;28;20038;-84
2022/05/16 01:28:58;;;;;;;5.07;3.80;;;;;;;;;;4999985;28;20057;-85
2022/05/16 01:31:24;;;;;;;6.53;3.45;;;;;;;;;;4999601;28;20034;-85
2022/05/16 01:33:50;;;;;;;7.25;3.70;;;;;;;;;;4998975;28;20046;-84
2022/05/16 01:36:15;;;;;;;4.35;3.55;;;;;;;;;;4998961;28;20064;-84
2022/05/16 01:38:43;;;;;;;6.00;3.80;;;;;;;;;;4999315;28;20491;-84
2022/05/16 01:41:20;;;;;;;5.78;3.60;;;;;;;;;;4999568;28;20031;-84
2022/05/16 01:43:49;;;;;;;4.45;3.50;;;;;;;;;;4999389;28;20038;-84
2022/05/16 01:46:39;;;;;;;4.55;3.42;;;;;;;;;;4998955;28;20048;-85
2022/05/16 01:49:07;;;;;;;4.57;3.10;;;;;;;;;;4999459;28;20038;-85
2022/05/16 01:51:33;;;;;;;3.55;3.22;;;;;;;;;;4999844;28;20034;-84
2022/05/16 01:54:02;;;;;;;4.30;3.58;;;;;;;;;;4981319;28;20042;-84
2022/05/16 01:56:28;;;;;;;5.55;3.85;;;;;;;;;;4998856;28;20065;-85
2022/05/16 01:58:53;;;;;;;6.80;3.83;;;;;;;;;;4999843;28;20454;-84
2022/05/16 02:01:20;;;;;;;6.85;3.60;;;;;;;;;;5002221;28;20487;-84
2022/05/16 02:03:47;;;;;;;6.50;3.90;;;;;;;;;;5002288;28;20034;-84
2022/05/16 02:06:13;;;;;;;4.32;3.55;;;;;;;;;;5002483;28;20037;-84
2022/05/16 02:08:40;;;;;;;7.47;3.70;;;;;;;;;;5002675;28;20101;-83
2022/05/16 02:11:06;;;;;;;5.95;3.30;;;;;;;;;;5001957;28;20049;-84
2022/05/16 02:13:34;;;;;;;6.78;3.53;;;;;;;;;;5002818;28;20042;-84
2022/05/16 02:15:59;;;;;;;5.53;3.35;;;;;;;;;;5002468;28;20038;-84
2022/05/16 02:18:25;;;;;;;5.15;3.70;;;;;;;;;;4984534;28;20499;-84
2022/05/16 02:20:51;;;;;;;6.97;3.80;;;;;;;;;;5001719;28;20042;-84
2022/05/16 02:26:01;;;;;;;7.68;3.78;;;;;;;;;;5002347;28;20100;-85
2022/05/16 02:28:27;;;;;;;7.88;3.60;;;;;;;;;;5002189;28;20510;-84
2022/05/16 02:30:54;;;;;;;4.88;3.65;;;;;;;;;;4984639;28;20064;-84
2022/05/16 02:33:20;;;;;;;7.18;3.92;;;;;;;;;;4984475;28;20038;-84
2022/05/16 02:35:46;;;;;;;4.97;3.67;;;;;;;;;;4984456;28;20121;-84
2022/05/16 02:38:13;;;;;;;4.07;3.33;;;;;;;;;;4984353;28;20046;-83
2022/05/16 02:40:39;;;;;;;5.78;3.50;;;;;;;;;;5001454;28;20077;-84
2022/05/16 02:43:05;;;;;;;6.05;3.80;;;;;;;;;;5001872;28;20073;-84
2022/05/16 02:45:32;;;;;;;5.90;3.42;;;;;;;;;;5001515;28;20038;-84
2022/05/16 02:47:58;;;;;;;5.07;3.33;;;;;;;;;;5001894;28;20042;-84
2022/05/16 02:50:24;;;;;;;7.72;3.55;;;;;;;;;;5001662;28;20042;-84
2022/05/16 02:52:51;;;;;;;7.72;3.95;;;;;;;;;;5000568;28;20027;-84
2022/05/16 02:55:17;;;;;;;4.72;3.78;;;;;;;;;;5001440;28;20030;-84
2022/05/16 02:57:42;;;;;;;4.60;3.60;;;;;;;;;;5000720;28;20565;-84
2022/05/16 03:00:10;;;;;;;5.35;3.45;;;;;;;;;;4984139;28;20080;-84
2022/05/16 03:02:36;;;;;;;4.57;3.20;;;;;;;;;;5001874;28;20121;-83
2022/05/16 03:05:03;;;;;;;7.10;4.13;;;;;;;;;;5000984;28;20038;-84
2022/05/16 03:07:29;;;;;;;5.95;3.70;;;;;;;;;;4999699;28;20073;-84
2022/05/16 03:09:54;;;;;;;9.60;3.80;;;;;;;;;;4983394;28;20030;-84
2022/05/16 03:12:20;;;;;;;6.45;3.60;;;;;;;;;;4983895;28;20030;-84
2022/05/16 03:14:45;;;;;;;6.00;3.60;;;;;;;;;;4999045;28;20045;-83
2022/05/16 03:17:11;;;;;;;5.15;3.75;;;;;;;;;;5000853;28;20049;-84
2022/05/16 03:19:36;;;;;;;5.47;4.07;;;;;;;;;;5000640;28;20034;-84
2022/05/16 03:22:04;;;;;;;5.95;4.05;;;;;;;;;;5001013;28;20491;-84
2022/05/16 03:24:29;;;;;;;6.25;4.05;;;;;;;;;;4983722;28;20018;-84
2022/05/16 03:26:55;;;;;;;5.13;4.00;;;;;;;;;;5001073;28;20038;-84
2022/05/16 03:29:20;;;;;;;5.45;4.13;;;;;;;;;;5001029;28;20110;-84
2022/05/16 03:31:46;;;;;;;5.80;3.83;;;;;;;;;;4999923;28;20347;-85
2022/05/16 03:34:12;;;;;;;8.52;4.22;;;;;;;;;;4982874;28;20047;-84
2022/05/16 03:36:38;;;;;;;9.82;4.13;;;;;;;;;;4983247;28;20045;-84
2022/05/16 03:41:49;;;;;;;7.82;4.25;;;;;;;;;;4999977;28;20066;-84
2022/05/16 03:44:15;;;;;;;5.45;4.00;;;;;;;;;;5000092;28;20029;-84
2022/05/16 03:46:41;;;;;;;10.57;4.50;;;;;;;;;;4983300;28;20036;-84
2022/05/16 03:49:07;;;;;;;7.65;4.28;;;;;;;;;;5000782;28;20120;-84
2022/05/16 03:51:33;;;;;;;6.93;4.10;;;;;;;;;;5000394;28;20034;-84
2022/05/16 03:53:59;;;;;;;5.25;4.07;;;;;;;;;;4998450;28;20069;-84
2022/05/16 03:56:27;;;;;;;10.15;3.97;;;;;;;;;;5000393;28;20026;-84
2022/05/16 03:58:54;;;;;;;7.03;3.80;;;;;;;;;;5000558;28;20038;-84
2022/05/16 04:01:20;;;;;;;8.10;3.95;;;;;;;;;;5000517;28;20045;-84
2022/05/16 04:03:46;;;;;;;8.63;4.18;;;;;;;;;;4982912;28;20096;-85
2022/05/16 04:06:13;;;;;;;6.57;4.10;;;;;;;;;;5000182;28;20046;-84
2022/05/16 04:08:40;;;;;;;9.27;3.92;;;;;;;;;;5000299;28;20042;-84
2022/05/16 04:11:06;;;;;;;8.55;4.00;;;;;;;;;;4999896;28;20034;-84
2022/05/16 04:13:33;;;;;;;7.20;3.60;;;;;;;;;;4999708;28;20057;-84
2022/05/16 04:15:58;;;;;;;6.78;3.72;;;;;;;;;;4982040;28;20256;-84
2022/05/16 04:18:24;;;;;;;12.70;6.15;;;;;;;;;;4999889;28;20026;-84
2022/05/16 04:20:49;;;;;;;15.73;6.95;;;;;;;;;;5000235;28;20038;-84
2022/05/16 04:23:15;;;;;;;26.45;9.65;;;;;;;;;;4999858;28;20395;-84
2022/05/16 04:25:40;;;;;;;34.22;12.65;;;;;;;;;;4999858;28;20040;-84
2022/05/16 04:28:08;;;;;;;19.55;7.43;;;;;;;;;;4999444;28;20036;-84
2022/05/16 04:30:33;;;;;;;17.30;7.40;;;;;;;;;;4982117;28;20042;-84
2022/05/16 04:32:59;;;;;;;8.20;4.53;;;;;;;;;;5000126;28;20038;-84
2022/05/16 04:35:25;;;;;;;7.88;4.53;;;;;;;;;;4982090;28;20088;-85
2022/05/16 04:37:51;;;;;;;10.02;5.43;;;;;;;;;;5000234;28;20034;-84
2022/05/16 04:40:17;;;;;;;14.80;6.75;;;;;;;;;;5000041;28;20394;-84
2022/05/16 04:42:43;;;;;;;12.77;5.25;;;;;;;;;;4982398;28;20045;-84
2022/05/16 04:45:35;;;;;;;8.23;4.60;;;;;;;;;;4999413;28;20451;-84
2022/05/16 04:48:01;;;;;;;9.35;4.00;;;;;;;;;;4995634;28;20049;-84
2022/05/16 04:50:30;;;;;;;9.52;5.15;;;;;;;;;;4999622;28;20107;-84
2022/05/16 04:52:56;;;;;;;8.27;4.65;;;;;;;;;;4999742;28;20192;-84
2022/05/16 04:55:22;;;;;;;8.68;3.63;;;;;;;;;;4998350;28;20061;-84
2022/05/16 04:57:48;;;;;;;9.30;3.70;;;;;;;;;;5000460;28;20034;-84
2022/05/16 05:00:16;;;;;;;6.32;3.58;;;;;;;;;;5012639;23;20046;-87
2022/05/16 05:02:43;;;;;;;5.43;3.50;;;;;;;;;;4975484;28;20081;-86
2022/05/16 05:05:09;;;;;;;6.43;3.35;;;;;;;;;;4979264;28;20050;-87
2022/05/16 05:07:36;;;;;;;6.80;3.70;;;;;;;;;;4975427;28;20050;-88
2022/05/16 05:15:30;;;;;;;10.15;3.60;;;;;;;;;;4975023;28;20038;-89
2022/05/16 05:17:56;;;;;;;8.25;3.42;;;;;;;;;;4974012;28;20070;-89
2022/05/16 05:20:21;;;;;;;5.70;3.70;;;;;;;;;;4975221;28;20058;-88
2022/05/16 05:22:48;;;;;;;6.72;3.90;;;;;;;;;;4974929;28;20031;-89
2022/05/16 05:25:17;;;;;;;5.97;3.90;;;;;;;;;;4957780;28;20500;-87
2022/05/16 05:27:46;;;;;;;5.85;3.80;;;;;;;;;;4974688;28;20388;-88
2022/05/16 05:30:15;;;;;;;4.80;3.40;;;;;;;;;;4975162;28;20031;-87
2022/05/16 05:32:44;;;;;;;5.18;3.40;;;;;;;;;;4973241;28;20082;-88
2022/05/16 05:35:10;;;;;;;7.15;3.63;;;;;;;;;;4960278;28;20093;-89
2022/05/16 05:37:36;;;;;;;5.57;3.42;;;;;;;;;;4960711;28;20090;-88
2022/05/16 05:40:04;;;;;;;5.03;3.67;;;;;;;;;;4977947;28;20114;-87
2022/05/16 05:42:31;;;;;;;6.78;3.65;;;;;;;;;;4976542;28;20126;-88
2022/05/16 05:44:58;;;;;;;5.40;4.00;;;;;;;;;;4977145;28;20106;-88
2022/05/16 05:47:25;;;;;;;7.47;3.40;;;;;;;;;;4975995;28;20093;-88
2022/05/16 05:49:51;;;;;;;6.30;3.50;;;;;;;;;;4959871;28;20034;-89
2022/05/16 05:52:17;;;;;;;5.15;3.42;;;;;;;;;;4975266;28;20540;-88
2022/05/16 05:54:43;;;;;;;7.68;3.92;;;;;;;;;;4987603;28;20046;-87
2022/05/16 05:57:09;;;;;;;5.38;3.50;;;;;;;;;;4976705;28;20035;-87
2022/05/16 05:59:35;;;;;;;5.32;3.30;;;;;;;;;;4984509;28;20082;-89
2022/05/16 06:02:01;;;;;;;6.50;3.38;;;;;;;;;;4977521;28;20037;-87
2022/05/16 06:04:27;;;;;;;5.18;3.33;;;;;;;;;;4962677;28;20027;-86
2022/05/16 06:06:52;;;;;;;6.03;3.30;;;;;;;;;;5015247;28;20071;-87
2022/05/16 06:09:18;;;;;;;8.23;3.47;;;;;;;;;;4964719;28;20046;-87
2022/05/16 06:11:43;;;;;;;4.72;3.10;;;;;;;;;;4977343;28;20034;-88
2022/05/16 06:14:09;;;;;;;7.78;3.40;;;;;;;;;;4978127;28;20046;-88
2022/05/16 06:16:34;;;;;;;4.70;3.40;;;;;;;;;;4976521;28;20066;-88
2022/05/16 06:18:59;;;;;;;4.57;3.00;;;;;;;;;;4975121;28;20039;-88
2022/05/16 06:21:25;;;;;;;6.82;3.40;;;;;;;;;;4975840;28;20384;-88
2022/05/16 06:23:50;;;;;;;6.18;3.20;;;;;;;;;;4976157;28;20037;-87
2022/05/16 06:26:16;;;;;;;4.63;3.33;;;;;;;;;;4974411;28;20035;-89
2022/05/16 06:28:42;;;;;;;9.85;3.08;;;;;;;;;;4974793;28;20042;-87
2022/05/16 06:31:07;;;;;;;5.25;3.55;;;;;;;;;;4974471;28;20037;-88
2022/05/16 06:33:33;;;;;;;8.00;3.50;;;;;;;;;;4990799;28;20491;-88
2022/05/16 06:36:00;;;;;;;5.40;3.30;;;;;;;;;;4958075;28;20424;-88
2022/05/16 06:38:29;;;;;;;7.10;3.38;;;;;;;;;;4974601;28;20074;-88
2022/05/16 06:40:55;;;;;;;7.05;3.17;;;;;;;;;;4958174;28;20038;-88
2022/05/16 06:43:23;;;;;;;4.50;3.10;;;;;;;;;;4974484;28;20035;-89
2022/05/16 06:45:49;;;;;;;6.47;3.38;;;;;;;;;;4956807;28;20050;-88
2022/05/16 06:48:14;;;;;;;6.13;3.10;;;;;;;;;;4975534;28;20046;-89
2022/05/16 06:50:41;;;;;;;6.85;3.50;;;;;;;;;;4974014;28;20035;-88
2022/05/16 06:53:11;;;;;;;5.22;3.47;;;;;;;;;;4974174;28;20042;-88
2022/05/16 06:55:37;;;;;;;5.18;3.30;;;;;;;;;;4984881;28;20106;-90
2022/05/16 06:58:02;;;;;;;5.40;3.00;;;;;;;;;;4975795;28;20058;-89
2022/05/16 07:00:28;;;;;;;6.65;2.60;;;;;;;;;;4990128;28;20039;-89
2022/05/16 07:02:53;;;;;;;5.60;3.28;;;;;;;;;;4969219;28;20443;-88
2022/05/16 07:05:19;;;;;;;7.38;3.30;;;;;;;;;;4973888;28;20027;-88
2022/05/16 07:07:44;;;;;;;5.15;3.35;;;;;;;;;;4975414;28;20128;-87
2022/05/16 07:10:11;;;;;;;4.78;2.97;;;;;;;;;;4973814;28;20029;-89
2022/05/16 07:12:37;;;;;;;7.28;2.97;;;;;;;;;;4973652;28;20034;-89
2022/05/16 07:15:03;;;;;;;6.75;3.10;;;;;;;;;;4974790;28;20045;-88
2022/05/16 07:17:29;;;;;;;5.13;3.03;;;;;;;;;;4973792;28;20031;-89
2022/05/16 07:19:54;;;;;;;6.75;3.28;;;;;;;;;;4973763;28;20031;-89
2022/05/16 07:22:22;;;;;;;5.05;2.95;;;;;;;;;;4973665;28;20034;-88
2022/05/16 07:24:48;;;;;;;6.18;3.10;;;;;;;;;;4974785;28;20038;-88
2022/05/16 07:29:59;;;;;;;4.05;3.00;;;;;;;;;;4989709;28;20038;-89
2022/05/16 07:32:36;;;;;;;8.85;3.17;;;;;;;;;;4973412;28;20077;-89
2022/05/16 07:35:03;;;;;;;6.88;3.50;;;;;;;;;;4974227;28;20114;-88
2022/05/16 07:37:29;;;;;;;6.55;3.20;;;;;;;;;;4974481;28;20027;-88
2022/05/16 07:39:55;;;;;;;7.65;2.92;;;;;;;;;;4989462;28;20037;-88
2022/05/16 07:42:20;;;;;;;8.82;3.67;;;;;;;;;;4973164;28;20046;-88
2022/05/16 07:44:47;;;;;;;4.25;3.33;;;;;;;;;;4989266;28;20089;-89
2022/05/16 07:47:13;;;;;;;6.18;3.40;;;;;;;;;;4974523;28;20505;-89
2022/05/16 07:49:38;;;;;;;5.95;3.22;;;;;;;;;;4974216;28;20500;-88
2022/05/16 07:52:04;;;;;;;7.78;3.40;;;;;;;;;;4983612;28;20053;-88
2022/05/16 07:54:29;;;;;;;4.18;3.10;;;;;;;;;;4973949;28;20058;-88
2022/05/16 07:56:55;;;;;;;5.88;3.15;;;;;;;;;;4973824;28;20039;-89
2022/05/16 07:59:20;;;;;;;4.97;3.22;;;;;;;;;;4974005;28;20106;-89
2022/05/16 08:01:46;;;;;;;5.03;3.47;;;;;;;;;;4974043;28;20038;-89
2022/05/16 08:04:12;;;;;;;7.63;3.20;;;;;;;;;;4972551;28;20039;-89
2022/05/16 08:06:38;;;;;;;7.13;3.00;;;;;;;;;;4972884;28;20070;-90
2022/05/16 08:11:49;;;;;;;4.30;3.10;;;;;;;;;;4973586;28;20113;-89
2022/05/16 08:14:14;;;;;;;4.28;3.00;;;;;;;;;;4973694;28;20027;-90
2022/05/16 08:16:40;;;;;;;4.63;3.08;;;;;;;;;;4973716;28;20130;-89
2022/05/16 08:19:06;;;;;;;6.43;3.10;;;;;;;;;;4956525;28;20035;-89
2022/05/16 08:21:31;;;;;;;5.63;3.20;;;;;;;;;;4972583;28;20488;-88
2022/05/16 08:23:57;;;;;;;7.03;3.13;;;;;;;;;;4972550;28;20046;-88
2022/05/16 08:26:23;;;;;;;8.27;3.10;;;;;;;;;;4973883;28;20031;-89
2022/05/16 08:28:49;;;;;;;5.70;3.40;;;;;;;;;;4988754;28;20038;-90
2022/05/16 08:31:14;;;;;;;6.63;3.33;;;;;;;;;;4973666;28;20034;-89
2022/05/16 08:33:40;;;;;;;6.70;3.70;;;;;;;;;;4973393;28;20385;-89
2022/05/16 08:41:56;;;;;;;5.93;3.80;;;;;;;;;;4973655;28;20085;-89
2022/05/16 08:44:28;;;;;;;7.13;3.20;;;;;;;;;;4973399;28;20035;-89
2022/05/16 08:47:15;;;;;;;6.70;3.22;;;;;;;;;;4976299;28;20067;-89
2022/05/16 08:50:06;;;;;;;6.22;3.33;;;;;;;;;;4974005;28;20108;-88
2022/05/16 08:52:35;;;;;;;4.95;3.28;;;;;;;;;;4972798;28;20041;-89
2022/05/16 08:55:04;;;;;;;6.55;3.50;;;;;;;;;;4974115;28;20480;-90
2022/05/16 08:57:33;;;;;;;6.22;3.33;;;;;;;;;;4988373;28;20373;-88
2022/05/16 09:00:15;;;;;;;6.88;3.63;;;;;;;;;;4972075;28;20062;-90
2022/05/16 09:02:43;;;;;;;4.90;3.10;;;;;;;;;;4972118;28;20035;-89
2022/05/16 09:05:20;;;;;;;8.52;3.30;;;;;;;;;;4971861;28;20031;-89
2022/05/16 09:07:49;;;;;;;7.53;3.35;;;;;;;;;;4956118;28;20046;-89
2022/05/16 09:10:36;;;;;;;9.15;3.38;;;;;;;;;;4976543;28;20030;-89
2022/05/16 09:13:19;;;;;;;6.22;3.30;;;;;;;;;;4975840;28;20081;-90
2022/05/16 09:16:04;;;;;;;7.80;3.38;;;;;;;;;;4959610;28;20499;-90
2022/05/16 09:18:37;;;;;;;7.13;3.80;;;;;;;;;;4985963;28;20038;-89
2022/05/16 09:21:08;;;;;;;6.30;3.42;;;;;;;;;;4993373;28;20045;-89
2022/05/16 09:23:58;;;;;;;5.97;3.17;;;;;;;;;;4976899;28;20070;-89
2022/05/16 09:26:54;;;;;;;4.35;2.97;;;;;;;;;;4991863;28;20046;-88
2022/05/16 09:29:26;;;;;;;4.05;2.47;;;;;;;;;;4991927;28;20058;-88
2022/05/16 09:31:56;;;;;;;5.32;2.60;;;;;;;;;;4976976;28;20038;-90
2022/05/16 09:34:21;;;;;;;5.53;2.60;;;;;;;;;;4975422;28;20042;-90
2022/05/16 09:36:49;;;;;;;5.50;2.60;;;;;;;;;;4976743;28;20030;-90
2022/05/16 09:39:24;;;;;;;5.10;3.03;;;;;;;;;;4976864;28;20031;-90
2022/05/16 09:42:10;;;;;;;5.78;3.13;;;;;;;;;;4977272;28;20042;-88
2022/05/16 09:45:02;;;;;;;6.65;3.13;;;;;;;;;;4998557;28;20046;-89
2022/05/16 09:47:28;;;;;;;7.53;3.03;;;;;;;;;;4959175;28;20053;-90
2022/05/16 09:50:02;;;;;;;7.97;3.05;;;;;;;;;;4991404;28;20034;-89
2022/05/16 09:52:30;;;;;;;5.13;3.00;;;;;;;;;;4991404;28;20038;-90
2022/05/16 09:55:04;;;;;;;5.22;3.33;;;;;;;;;;4974861;28;20019;-90
2022/05/16 09:57:37;;;;;;;4.72;2.53;;;;;;;;;;4976378;28;20066;-90
2022/05/16 10:00:15;;;;;;;11.02;2.60;;;;;;;;;;4975300;28;20034;-89
2022/05/16 10:02:42;;;;;;;4.78;2.47;;;;;;;;;;4991147;28;20035;-89
2022/05/16 10:05:19;;;;;;;5.95;2.60;;;;;;;;;;4976550;28;20042;-91
2022/05/16 10:07:48;;;;;;;4.15;2.80;;;;;;;;;;4991939;28;20133;-89
2022/05/16 10:10:23;;;;;;;7.60;2.60;;;;;;;;;;4975869;28;20118;-90
2022/05/16 10:12:51;;;;;;;5.30;2.75;;;;;;;;;;4976339;28;20039;-89
2022/05/16 10:15:17;;;;;;;7.32;2.60;;;;;;;;;;4976247;28;20046;-90
2022/05/16 10:17:45;;;;;;;4.38;2.55;;;;;;;;;;4975087;28;20411;-90
2022/05/16 10:20:20;;;;;;;4.90;2.55;;;;;;;;;;4974582;28;20129;-90
2022/05/16 10:22:46;;;;;;;5.18;2.55;;;;;;;;;;4975275;28;20125;-90
2022/05/16 10:25:18;;;;;;;6.53;2.80;;;;;;;;;;4975489;28;20034;-91
2022/05/16 10:27:45;;;;;;;4.78;2.28;;;;;;;;;;4981578;28;20078;-89
2022/05/16 10:30:20;;;;;;;3.55;2.00;;;;;;;;;;4975503;28;20042;-90
2022/05/16 10:35:40;;;;;;;5.65;2.00;;;;;;;;;;4976029;28;20399;-89
2022/05/16 10:38:09;;;;;;;7.88;1.90;;;;;;;;;;4985097;28;20035;-89
2022/05/16 10:40:41;;;;;;;8.00;1.88;;;;;;;;;;4977115;28;20031;-90
2022/05/16 10:43:15;;;;;;;2.35;1.65;;;;;;;;;;4992155;28;20077;-90
2022/05/16 10:45:44;;;;;;;5.03;2.03;;;;;;;;;;4991708;28;20435;-90
2022/05/16 10:48:30;;;;;;;4.53;1.80;;;;;;;;;;4975594;28;20118;-90
2022/05/16 10:51:07;;;;;;;3.10;1.60;;;;;;;;;;4976696;28;20455;-89
2022/05/16 10:53:41;;;;;;;4.35;1.33;;;;;;;;;;4975531;28;20030;-89
2022/05/16 10:56:18;;;;;;;2.42;1.40;;;;;;;;;;4975675;28;20041;-90
2022/05/16 10:58:53;;;;;;;1.95;1.60;;;;;;;;;;4975211;28;20393;-90
2022/05/16 11:01:48;;;;;;;4.90;1.70;;;;;;;;;;5010868;23;20079;-84
2022/05/16 11:05:05;;;;;;;5.05;1.90;;;;;;;;;;4977635;28;20046;-84
2022/05/16 11:07:30;;;;;;;4.32;1.83;;;;;;;;;;4954348;28;20042;-84
2022/05/16 11:10:08;;;;;;;3.13;1.90;;;;;;;;;;4997678;28;20042;-84
2022/05/16 11:12:39;;;;;;;6.05;1.75;;;;;;;;;;4997137;28;20045;-84
2022/05/16 11:15:30;;;;;;;7.65;1.92;;;;;;;;;;4981386;28;20056;-83
2022/05/16 11:18:24;;;;;;;3.35;1.65;;;;;;;;;;5000402;28;20038;-85
2022/05/16 11:20:59;;;;;;;4.80;1.75;;;;;;;;;;4997254;28;20043;-83
2022/05/16 11:23:50;;;;;;;5.40;1.48;;;;;;;;;;4998032;28;20070;-83
2022/05/16 11:26:21;;;;;;;3.80;1.50;;;;;;;;;;4980539;28;20499;-83
2022/05/16 11:31:41;;;;;;;3.45;1.60;;;;;;;;;;4997165;28;20094;-85
2022/05/16 11:34:15;;;;;;;2.15;1.50;;;;;;;;;;4997193;28;20129;-84
2022/05/16 11:36:46;;;;;;;3.55;1.80;;;;;;;;;;4997641;28;20038;-84
2022/05/16 11:39:30;;;;;;;2.72;1.48;;;;;;;;;;4997616;28;20420;-84
2022/05/16 11:42:05;;;;;;;3.53;1.50;;;;;;;;;;4979786;28;20041;-84
2022/05/16 11:44:48;;;;;;;4.90;1.48;;;;;;;;;;4997055;28;20173;-85
2022/05/16 11:47:26;;;;;;;5.25;2.03;;;;;;;;;;4997374;28;20153;-85
2022/05/16 11:50:10;;;;;;;5.80;1.50;;;;;;;;;;4979567;28;20130;-84
2022/05/16 11:52:57;;;;;;;3.50;1.70;;;;;;;;;;4979846;28;20042;-84
2022/05/16 12:00:59;;;;;;;5.78;1.70;;;;;;;;;;4997029;28;20119;-85
2022/05/16 12:03:33;;;;;;;2.15;1.70;;;;;;;;;;4996907;28;20030;-84
2022/05/16 12:06:31;;;;;;;4.90;1.80;;;;;;;;;;4979562;28;20121;-85
2022/05/16 12:09:17;;;;;;;2.95;1.70;;;;;;;;;;4996832;28;20053;-84
2022/05/16 12:12:10;;;;;;;4.22;1.60;;;;;;;;;;4995909;28;20519;-84
2022/05/16 12:14:41;;;;;;;2.95;1.90;;;;;;;;;;4945671;28;20050;-84
2022/05/16 12:17:25;;;;;;;2.38;1.65;;;;;;;;;;4996787;28;20057;-84
2022/05/16 12:19:52;;;;;;;6.10;1.80;;;;;;;;;;4996711;28;20090;-84
2022/05/16 12:22:32;;;;;;;3.85;1.60;;;;;;;;;;4996285;28;20034;-84
2022/05/16 12:25:32;;;;;;;5.82;1.67;;;;;;;;;;4996414;28;20152;-84
2022/05/16 12:28:13;;;;;;;4.28;1.50;;;;;;;;;;4995844;28;20034;-84
2022/05/16 12:30:38;;;;;;;4.03;1.50;;;;;;;;;;4978667;28;20073;-84
2022/05/16 12:33:42;;;;;;;2.00;1.55;;;;;;;;;;4996308;28;20038;-84
2022/05/16 12:36:17;;;;;;;3.17;1.67;;;;;;;;;;4951960;28;20129;-85
2022/05/16 12:38:47;;;;;;;2.83;1.60;;;;;;;;;;4997466;28;20407;-84
2022/05/16 12:41:44;;;;;;;3.90;1.75;;;;;;;;;;4995005;28;20042;-84
2022/05/16 12:44:31;;;;;;;3.28;1.83;;;;;;;;;;4996156;28;20042;-84
2022/05/16 12:47:22;;;;;;;2.38;1.60;;;;;;;;;;4995744;28;20077;-84
2022/05/16 12:50:30;;;;;;;2.95;1.77;;;;;;;;;;4995914;28;20088;-85
2022/05/16 12:53:14;;;;;;;4.38;1.63;;;;;;;;;;4996127;28;20026;-84
2022/05/16 12:55:51;;;;;;;2.95;1.70;;;;;;;;;;4995662;28;20164;-84
2022/05/16 12:58:41;;;;;;;3.42;1.65;;;;;;;;;;4995027;28;20502;-84
2022/05/16 13:01:09;;;;;;;2.40;1.50;;;;;;;;;;4995890;28;20038;-84
2022/05/16 13:04:00;;;;;;;4.13;1.88;;;;;;;;;;4978437;28;20054;-84
2022/05/16 13:06:31;;;;;;;5.20;1.67;;;;;;;;;;4994625;28;20041;-84
2022/05/16 13:09:21;;;;;;;4.47;1.65;;;;;;;;;;4995713;28;20106;-84
2022/05/16 13:12:14;;;;;;;4.88;1.60;;;;;;;;;;4977491;28;20050;-84
2022/05/16 13:15:02;;;;;;;5.37;1.60;;;;;;;;;;4968563;28;20046;-85
2022/05/16 13:17:31;;;;;;;3.80;1.98;;;;;;;;;;4996037;28;20079;-84
2022/05/16 13:20:00;;;;;;;2.78;1.70;;;;;;;;;;4996038;28;20081;-84
2022/05/16 13:22:26;;;;;;;5.20;1.73;;;;;;;;;;4978721;28;20513;-84
2022/05/16 13:24:54;;;;;;;3.75;1.70;;;;;;;;;;4995715;28;20023;-84
2022/05/16 13:30:14;;;;;;;2.72;1.85;;;;;;;;;;4995450;28;20041;-84
2022/05/16 13:32:40;;;;;;;4.50;1.83;;;;;;;;;;4995666;28;20042;-84
2022/05/16 13:35:13;;;;;;;4.40;1.90;;;;;;;;;;4978042;28;20030;-84
2022/05/16 13:37:42;;;;;;;5.57;2.00;;;;;;;;;;4997006;28;20105;-84
2022/05/16 13:40:14;;;;;;;4.03;2.13;;;;;;;;;;4996337;28;20038;-84
2022/05/16 13:42:41;;;;;;;5.40;1.80;;;;;;;;;;4978625;28;20042;-84
2022/05/16 13:45:08;;;;;;;5.13;2.13;;;;;;;;;;4995371;28;20046;-84
2022/05/16 13:47:40;;;;;;;5.07;2.15;;;;;;;;;;4998215;28;20247;-84
2022/05/16 13:50:07;;;;;;;3.08;1.98;;;;;;;;;;4995765;28;20267;-83
2022/05/16 13:52:40;;;;;;;3.95;1.83;;;;;;;;;;4978732;28;20062;-84
2022/05/16 13:55:10;;;;;;;4.97;1.67;;;;;;;;;;4997289;28;20034;-83
2022/05/16 13:57:36;;;;;;;4.40;2.03;;;;;;;;;;4965523;28;20038;-83
2022/05/16 14:00:23;;;;;;;5.57;1.77;;;;;;;;;;4999898;28;20483;-83
2022/05/16 14:02:51;;;;;;;3.60;1.83;;;;;;;;;;4998187;28;20042;-83
2022/05/16 14:05:35;;;;;;;4.90;1.98;;;;;;;;;;4999447;28;20027;-84
2022/05/16 14:08:02;;;;;;;2.78;2.08;;;;;;;;;;4998730;28;20030;-84
2022/05/16 14:10:31;;;;;;;7.00;2.10;;;;;;;;;;4997704;28;20037;-84
2022/05/16 14:13:01;;;;;;;7.05;1.80;;;;;;;;;;4998942;28;20037;-84
2022/05/16 14:15:30;;;;;;;2.22;1.52;;;;;;;;;;4999190;28;20042;-84
2022/05/16 14:18:13;;;;;;;2.58;1.73;;;;;;;;;;4981678;28;20505;-84
2022/05/16 14:20:47;;;;;;;3.38;1.63;;;;;;;;;;4998556;28;20487;-82
2022/05/16 14:23:15;;;;;;;4.70;1.70;;;;;;;;;;4997786;28;20128;-82
2022/05/16 14:25:43;;;;;;;3.45;1.70;;;;;;;;;;4981169;28;20034;-82
2022/05/16 14:28:29;;;;;;;6.20;1.70;;;;;;;;;;4999071;28;20028;-82
2022/05/16 14:31:06;;;;;;;3.53;1.70;;;;;;;;;;4981123;28;20031;-82
2022/05/16 14:33:34;;;;;;;2.05;1.52;;;;;;;;;;4997523;28;20128;-82
2022/05/16 14:36:07;;;;;;;3.05;1.50;;;;;;;;;;4996499;28;20038;-82
2022/05/16 14:38:48;;;;;;;8.93;1.52;;;;;;;;;;4996609;28;20045;-82
2022/05/16 14:41:26;;;;;;;2.28;1.63;;;;;;;;;;4997825;28;20030;-82
2022/05/16 14:44:19;;;;;;;2.55;1.48;;;;;;;;;;4997854;28;20034;-82
2022/05/16 14:46:57;;;;;;;4.47;1.70;;;;;;;;;;4998102;28;20034;-84
2022/05/16 14:49:23;;;;;;;2.50;1.38;;;;;;;;;;4998741;28;20104;-81
2022/05/16 14:51:49;;;;;;;1.80;1.35;;;;;;;;;;4998212;28;20034;-84
2022/05/16 14:54:22;;;;;;;2.33;1.50;;;;;;;;;;4998002;28;20410;-84
2022/05/16 14:56:49;;;;;;;3.63;1.73;;;;;;;;;;4998198;28;20388;-83
2022/05/16 14:59:14;;;;;;;2.95;1.52;;;;;;;;;;4980279;28;20491;-83
2022/05/16 15:04:24;;;;;;;2.78;1.73;;;;;;;;;;4997204;28;20034;-83
2022/05/16 15:06:50;;;;;;;3.10;1.55;;;;;;;;;;4998275;28;20053;-83
2022/05/16 15:09:20;;;;;;;3.13;1.60;;;;;;;;;;4982051;28;20034;-83
2022/05/16 15:11:58;;;;;;;2.88;1.67;;;;;;;;;;4981848;28;20037;-84
2022/05/16 15:14:27;;;;;;;3.60;1.50;;;;;;;;;;4981720;28;20031;-83
2022/05/16 15:16:53;;;;;;;3.10;1.60;;;;;;;;;;4982276;28;20050;-83
2022/05/16 15:19:20;;;;;;;3.30;1.50;;;;;;;;;;4998951;28;20022;-84
2022/05/16 15:21:47;;;;;;;3.92;1.42;;;;;;;;;;4997521;28;20035;-84
2022/05/16 15:24:26;;;;;;;2.38;1.40;;;;;;;;;;4997538;28;20041;-84
2022/05/16 15:26:52;;;;;;;2.63;1.30;;;;;;;;;;4997208;28;20057;-84
2022/05/16 15:29:17;;;;;;;2.83;1.13;;;;;;;;;;4979671;28;20034;-84
2022/05/16 15:31:43;;;;;;;1.67;1.13;;;;;;;;;;4997404;28;20038;-83
2022/05/16 15:34:08;;;;;;;2.45;1.30;;;;;;;;;;4997360;28;20057;-84
2022/05/16 15:36:34;;;;;;;2.40;1.50;;;;;;;;;;4996304;28;20367;-84
2022/05/16 15:39:00;;;;;;;2.50;1.30;;;;;;;;;;4996433;28;20069;-84
2022/05/16 15:41:27;;;;;;;3.03;1.30;;;;;;;;;;4980197;28;20112;-83
2022/05/16 15:43:54;;;;;;;2.78;1.30;;;;;;;;;;4997525;28;20043;-84
2022/05/16 15:46:19;;;;;;;3.53;1.48;;;;;;;;;;4979323;28;20062;-83